Time;durP1;ratioP1;P1;durP2;ratioP2;P2;SDS_P1;SDS_P2;PMS_P1;PMS_P2;Temp;Humidity;BMP_temperature;BMP_pressure;BME280_temperature;BME280_humidity;BME280_pressure;Samples;Min_cycle;Max_cycle;Signal;HPM_P1;HPM_P2
2024/02/24 00:00:17;;;;;;;3.05;0.55;;;26.40;43.70;;;;;;5092872;28;20432;-59
2024/02/24 00:02:44;;;;;;;11.65;10.85;;;26.20;43.60;;;;;;5091945;28;20620;-60
2024/02/24 00:05:10;;;;;;;1.80;0.60;;;26.30;43.10;;;;;;5089991;28;20507;-60
2024/02/24 00:07:37;;;;;;;4.03;0.90;;;26.20;44.20;;;;;;5101037;28;20133;-60
2024/02/24 00:10:04;;;;;;;2.47;0.90;;;26.20;44.20;;;;;;5091545;28;20087;-59
2024/02/24 00:12:30;;;;;;;1.38;0.63;;;26.30;44.80;;;;;;5095745;28;20515;-60
2024/02/24 00:14:58;;;;;;;0.98;0.70;;;26.20;44.30;;;;;;5089569;28;20061;-59
2024/02/24 00:17:25;;;;;;;2.85;0.93;;;26.30;44.50;;;;;;5100495;28;20068;-58
2024/02/24 00:19:51;;;;;;;1.05;0.57;;;26.30;44.30;;;;;;5091734;28;20132;-61
2024/02/24 00:22:18;;;;;;;5.53;0.88;;;26.30;44.80;;;;;;5088557;28;20069;-59
2024/02/24 00:24:44;;;;;;;2.95;0.50;;;26.40;44.00;;;;;;5093280;28;20089;-58
2024/02/24 00:27:11;;;;;;;1.52;1.00;;;26.50;44.00;;;;;;5092148;28;20133;-58
2024/02/24 00:29:37;;;;;;;5.65;1.08;;;26.50;44.00;;;;;;5089909;28;20159;-59
2024/02/24 00:32:04;;;;;;;1.30;0.60;;;26.30;44.00;;;;;;5104076;28;20079;-60
2024/02/24 00:34:30;;;;;;;5.55;0.80;;;26.10;43.70;;;;;;5107100;28;20138;-60
2024/02/24 00:36:57;;;;;;;2.88;0.70;;;26.00;44.00;;;;;;5094430;28;20068;-60
2024/02/24 00:39:23;;;;;;;2.88;0.60;;;26.00;44.50;;;;;;5086498;28;20072;-61
2024/02/24 00:41:53;;;;;;;7.10;0.80;;;25.90;44.90;;;;;;5093368;28;20086;-59
2024/02/24 00:44:19;;;;;;;1.10;0.68;;;25.70;44.90;;;;;;5091569;28;20087;-59
2024/02/24 00:46:46;;;;;;;5.75;1.10;;;25.70;45.40;;;;;;5105625;28;20072;-60
2024/02/24 00:49:12;;;;;;;4.80;1.13;;;25.60;44.90;;;;;;5099804;28;20069;-60
2024/02/24 00:51:41;;;;;;;3.00;0.57;;;25.60;44.30;;;;;;5105944;28;20098;-59
2024/02/24 00:54:08;;;;;;;3.50;0.85;;;25.50;44.70;;;;;;5103116;28;20091;-55
2024/02/24 00:56:37;;;;;;;6.35;1.00;;;25.40;45.10;;;;;;5101472;28;20123;-58
2024/02/24 00:59:04;;;;;;;9.32;1.00;;;25.20;45.30;;;;;;5098717;28;20060;-58
2024/02/24 01:01:30;;;;;;;9.40;0.90;;;25.10;45.60;;;;;;5109947;28;20080;-57
2024/02/24 01:03:57;;;;;;;4.13;0.95;;;24.90;46.00;;;;;;5109476;28;20139;-58
2024/02/24 01:06:23;;;;;;;6.25;1.23;;;24.80;46.00;;;;;;5094075;28;20380;-58
2024/02/24 01:08:50;;;;;;;3.22;0.82;;;24.70;46.00;;;;;;5100521;28;20155;-59
2024/02/24 01:11:16;;;;;;;4.60;1.17;;;24.70;46.20;;;;;;5092961;28;20084;-57
2024/02/24 01:13:44;;;;;;;5.30;1.15;;;24.60;46.50;;;;;;5090782;28;20530;-59
2024/02/24 01:16:10;;;;;;;7.43;0.98;;;24.50;47.00;;;;;;5101852;28;20068;-58
2024/02/24 01:18:36;;;;;;;14.48;4.63;;;24.40;47.00;;;;;;5104063;28;20578;-58
2024/02/24 01:21:04;;;;;;;7.70;1.25;;;24.40;47.00;;;;;;5095501;28;20157;-53
2024/02/24 01:23:30;;;;;;;3.20;0.85;;;24.30;47.20;;;;;;5087684;28;20156;-64
2024/02/24 01:25:56;;;;;;;3.78;1.60;;;24.20;47.50;;;;;;5101928;28;20075;-54
2024/02/24 01:28:23;;;;;;;8.18;1.50;;;24.10;47.60;;;;;;5094729;28;20072;-53
2024/02/24 01:30:49;;;;;;;7.10;1.38;;;24.00;47.70;;;;;;5105980;28;20181;-57
2024/02/24 01:33:16;;;;;;;7.10;1.50;;;23.90;47.90;;;;;;5105313;28;20072;-53
2024/02/24 01:35:42;;;;;;;6.50;1.48;;;23.80;47.90;;;;;;5092999;28;20079;-55
2024/02/24 01:38:09;;;;;;;4.57;1.50;;;23.70;48.10;;;;;;5096118;28;20524;-54
2024/02/24 01:40:36;;;;;;;8.48;1.75;;;23.60;48.50;;;;;;5111809;28;20088;-54
2024/02/24 01:43:02;;;;;;;11.60;1.63;;;23.50;48.60;;;;;;5092208;28;20096;-55
2024/02/24 01:45:29;;;;;;;7.32;1.65;;;23.50;48.80;;;;;;5102092;28;20481;-55
2024/02/24 01:47:56;;;;;;;8.60;1.55;;;23.40;48.90;;;;;;5107972;28;20076;-55
2024/02/24 01:50:25;;;;;;;10.73;1.90;;;23.30;49.30;;;;;;5111113;28;20094;-55
2024/02/24 01:52:53;;;;;;;10.52;1.95;;;23.20;49.50;;;;;;5107727;28;20068;-56
2024/02/24 01:55:19;;;;;;;8.23;1.40;;;23.20;49.70;;;;;;5094527;28;20095;-56
2024/02/24 01:57:50;;;;;;;42.72;17.55;;;23.10;50.00;;;;;;5092043;28;20156;-50
2024/02/24 02:00:17;;;;;;;17.67;2.60;;;23.00;50.30;;;;;;5106556;28;20099;-53
2024/02/24 02:02:45;;;;;;;19.08;3.00;;;22.90;50.40;;;;;;5115180;28;20103;-54
2024/02/24 02:05:13;;;;;;;17.20;3.00;;;22.90;50.60;;;;;;5115063;28;20060;-55
2024/02/24 02:07:39;;;;;;;15.18;3.55;;;22.80;51.50;;;;;;5114961;28;20080;-55
2024/02/24 02:10:06;;;;;;;17.60;5.43;;;22.70;52.10;;;;;;5114930;28;20068;-55
2024/02/24 02:12:34;;;;;;;21.00;5.65;;;22.60;52.10;;;;;;5112579;28;20172;-54
2024/02/24 02:15:01;;;;;;;23.77;5.82;;;22.50;52.50;;;;;;5108567;28;20545;-54
2024/02/24 02:17:28;;;;;;;38.60;6.40;;;22.40;52.70;;;;;;5098587;28;20076;-52
2024/02/24 02:20:18;;;;;;;22.88;6.32;;;22.30;52.70;;;;;;5112750;28;20183;-57
2024/02/24 02:22:45;;;;;;;32.67;6.18;;;22.30;52.60;;;;;;5112777;28;20095;-58
2024/02/24 02:25:11;;;;;;;49.33;22.50;;;22.30;52.60;;;;;;5103153;28;20065;-65
2024/02/24 02:27:38;;;;;;;76.55;53.05;;;22.30;52.80;;;;;;5093240;28;20068;-55
2024/02/24 02:30:06;;;;;;;22.77;6.72;;;22.20;53.10;;;;;;5110082;28;20151;-53
2024/02/24 02:32:33;;;;;;;20.95;5.38;;;22.20;53.40;;;;;;5096302;28;20114;-52
2024/02/24 02:34:59;;;;;;;23.27;3.85;;;22.10;53.70;;;;;;5106066;28;20502;-53
2024/02/24 02:37:25;;;;;;;24.33;3.80;;;22.00;54.00;;;;;;5112202;28;20068;-53
2024/02/24 02:39:52;;;;;;;25.83;3.17;;;21.90;54.40;;;;;;5097090;28;20102;-53
2024/02/24 02:42:18;;;;;;;20.38;3.60;;;21.80;55.00;;;;;;5102083;28;20131;-55
2024/02/24 02:44:46;;;;;;;20.75;3.42;;;21.70;54.80;;;;;;5100670;28;20108;-55
2024/02/24 02:47:14;;;;;;;26.67;6.05;;;21.70;55.10;;;;;;5113948;28;20497;-54
2024/02/24 02:49:40;;;;;;;22.52;5.18;;;21.60;54.50;;;;;;5111895;28;20080;-50
2024/02/24 02:52:07;;;;;;;31.35;5.78;;;21.60;54.50;;;;;;5099144;28;20068;-51
2024/02/24 02:54:33;;;;;;;38.50;5.43;;;21.60;54.60;;;;;;5107863;28;20459;-53
2024/02/24 02:57:00;;;;;;;27.27;4.97;;;21.60;54.70;;;;;;5114549;28;20569;-53
2024/02/24 02:59:26;;;;;;;37.50;6.07;;;21.50;55.40;;;;;;5111724;28;20147;-51
2024/02/24 03:01:54;;;;;;;23.23;4.78;;;21.40;56.20;;;;;;5104978;28;20072;-54
2024/02/24 03:04:21;;;;;;;30.70;6.13;;;21.40;56.30;;;;;;5111667;28;20104;-54
2024/02/24 03:06:47;;;;;;;35.28;7.45;;;21.30;56.30;;;;;;5109815;28;20187;-54
2024/02/24 03:09:14;;;;;;;37.15;7.63;;;21.20;55.80;;;;;;5105679;28;20068;-55
2024/02/24 03:11:40;;;;;;;46.97;8.15;;;21.20;55.50;;;;;;5101470;28;20403;-57
2024/02/24 03:14:07;;;;;;;54.75;7.55;;;21.20;55.50;;;;;;5091950;28;20090;-55
2024/02/24 03:16:33;;;;;;;54.80;7.53;;;21.20;56.00;;;;;;5091378;28;20068;-55
2024/02/24 03:19:00;;;;;;;40.15;7.93;;;21.20;56.70;;;;;;5093008;28;20105;-57
2024/02/24 03:21:28;;;;;;;32.78;7.80;;;21.10;57.00;;;;;;5097991;28;20096;-63
2024/02/24 03:23:55;;;;;;;45.70;7.75;;;21.00;57.20;;;;;;5093875;28;20068;-54
2024/02/24 03:26:22;;;;;;;52.25;9.20;;;21.00;57.40;;;;;;5106587;28;20072;-52
2024/02/24 03:28:48;;;;;;;38.63;8.82;;;20.90;57.80;;;;;;5113337;28;20079;-55
2024/02/24 03:31:15;;;;;;;55.50;11.30;;;20.80;57.70;;;;;;5096954;28;20073;-53
2024/02/24 03:33:41;;;;;;;57.75;15.90;;;20.70;57.50;;;;;;5111339;28;20108;-54
2024/02/24 03:36:16;;;;;;;48.28;21.08;;;20.60;59.00;;;;;;5098707;28;20135;-53
2024/02/24 03:38:43;;;;;;;57.05;21.17;;;20.60;58.40;;;;;;5100691;28;20365;-54
2024/02/24 03:41:10;;;;;;;74.07;19.85;;;20.60;57.90;;;;;;5095324;28;20125;-53
2024/02/24 03:43:37;;;;;;;45.53;14.95;;;20.60;58.50;;;;;;5107125;28;20072;-53
2024/02/24 03:46:05;;;;;;;58.47;13.45;;;20.50;58.30;;;;;;5108744;28;20064;-54
2024/02/24 03:48:32;;;;;;;44.58;12.80;;;20.50;59.50;;;;;;5105522;28;20883;-54
2024/02/24 03:50:59;;;;;;;58.13;12.77;;;20.40;58.80;;;;;;5113323;28;20064;-54
2024/02/24 03:53:26;;;;;;;53.03;13.05;;;20.30;59.70;;;;;;5096095;28;20130;-53
2024/02/24 03:55:53;;;;;;;74.07;14.50;;;20.30;59.80;;;;;;5092426;28;20073;-50
2024/02/24 03:58:21;;;;;;;46.10;13.15;;;20.20;59.70;;;;;;5102161;28;20088;-54
2024/02/24 04:00:50;;;;;;;67.78;12.68;;;20.20;59.90;;;;;;5092552;28;20105;-55
2024/02/24 04:03:17;;;;;;;63.92;11.63;;;20.20;60.90;;;;;;5101093;28;20203;-54
2024/02/24 04:05:44;;;;;;;58.15;11.95;;;20.10;60.90;;;;;;5090535;28;20134;-57
2024/02/24 04:08:11;;;;;;;44.10;10.27;;;20.00;60.60;;;;;;5092130;28;20555;-55
2024/02/24 04:10:37;;;;;;;56.10;9.90;;;19.90;60.90;;;;;;5090372;28;20077;-52
2024/02/24 04:13:04;;;;;;;40.50;10.27;;;19.80;62.00;;;;;;5102647;28;20112;-61
2024/02/24 04:15:30;;;;;;;45.00;9.75;;;19.80;62.80;;;;;;5107248;28;20178;-52
2024/02/24 04:17:57;;;;;;;50.08;9.63;;;19.70;62.40;;;;;;5092652;28;20076;-57
2024/02/24 04:20:23;;;;;;;47.58;9.43;;;19.70;62.90;;;;;;5089326;28;20108;-53
2024/02/24 04:22:50;;;;;;;51.15;8.98;;;19.70;62.50;;;;;;5095894;28;20068;-54
2024/02/24 04:25:16;;;;;;;49.30;9.93;;;19.70;62.60;;;;;;5092141;28;20068;-52
2024/02/24 04:27:43;;;;;;;36.10;9.85;;;19.80;62.20;;;;;;5105904;28;20060;-53
2024/02/24 04:30:09;;;;;;;50.70;10.77;;;19.80;61.60;;;;;;5112410;28;20060;-52
2024/02/24 04:32:36;;;;;;;53.53;10.90;;;19.80;61.60;;;;;;5110171;28;20076;-53
2024/02/24 04:35:03;;;;;;;50.20;10.70;;;19.80;62.30;;;;;;5112279;28;20155;-52
2024/02/24 04:37:30;;;;;;;48.83;11.27;;;19.80;61.70;;;;;;5112275;28;20551;-53
2024/02/24 04:39:56;;;;;;;64.63;12.40;;;19.80;62.10;;;;;;5110679;28;20195;-54
2024/02/24 04:42:24;;;;;;;47.60;11.85;;;19.80;60.80;;;;;;5100727;28;20076;-53
2024/02/24 04:44:51;;;;;;;63.80;12.55;;;19.90;60.70;;;;;;5091570;28;20438;-52
2024/02/24 04:47:22;;;;;;;48.33;11.63;;;19.80;61.00;;;;;;5099971;28;20064;-54
2024/02/24 04:49:48;;;;;;;67.57;13.98;;;19.70;60.80;;;;;;5112316;28;20060;-51
2024/02/24 04:52:15;;;;;;;52.42;13.38;;;19.60;62.60;;;;;;5094684;28;20083;-57
2024/02/24 04:54:41;;;;;;;52.83;13.38;;;19.60;61.80;;;;;;5088817;28;20076;-56
2024/02/24 04:57:08;;;;;;;57.92;12.30;;;19.60;61.50;;;;;;5103879;28;20151;-56
2024/02/24 04:59:35;;;;;;;59.83;13.00;;;19.50;61.10;;;;;;5100562;28;20076;-55
2024/02/24 05:02:01;;;;;;;49.53;12.38;;;19.50;61.20;;;;;;5096530;28;20117;-56
2024/02/24 05:04:28;;;;;;;52.40;12.00;;;19.50;61.90;;;;;;5100823;28;20104;-51
2024/02/24 05:06:54;;;;;;;50.72;11.70;;;19.40;61.50;;;;;;5091867;28;20069;-55
2024/02/24 05:09:21;;;;;;;63.25;13.40;;;19.30;62.50;;;;;;5109492;28;20498;-54
2024/02/24 05:11:47;;;;;;;56.33;12.93;;;19.40;62.80;;;;;;5102914;28;20075;-50
2024/02/24 05:14:17;;;;;;;60.45;12.88;;;19.30;62.70;;;;;;5105380;28;20566;-51
2024/02/24 05:16:44;;;;;;;48.88;12.55;;;19.20;63.30;;;;;;5107819;28;20069;-50
2024/02/24 05:19:11;;;;;;;61.05;13.40;;;19.20;63.80;;;;;;5104474;28;20076;-53
2024/02/24 05:21:37;;;;;;;59.45;12.80;;;19.20;64.80;;;;;;5110298;28;20425;-52
2024/02/24 05:24:05;;;;;;;62.47;13.20;;;19.10;63.80;;;;;;5121261;28;20072;-52
2024/02/24 05:26:32;;;;;;;56.53;13.55;;;19.10;64.80;;;;;;5094109;28;20074;-53
2024/02/24 05:28:58;;;;;;;60.70;13.63;;;19.00;64.70;;;;;;5107150;28;20540;-54
2024/02/24 05:31:25;;;;;;;65.22;13.23;;;19.00;64.10;;;;;;5099007;28;20104;-51
2024/02/24 05:33:53;;;;;;;64.13;14.05;;;18.90;64.20;;;;;;5103814;28;21821;-52
2024/02/24 05:36:19;;;;;;;67.55;14.38;;;18.90;64.00;;;;;;5099225;28;20094;-50
2024/02/24 05:38:46;;;;;;;88.82;19.30;;;18.90;63.50;;;;;;5104851;28;20119;-51
2024/02/24 05:41:12;;;;;;;51.67;16.27;;;18.90;63.10;;;;;;5110612;28;20104;-50
2024/02/24 05:43:39;;;;;;;62.67;14.82;;;18.80;64.60;;;;;;5103403;28;20081;-52
2024/02/24 05:46:08;;;;;;;62.40;14.90;;;18.80;65.50;;;;;;5103604;28;20071;-52
2024/02/24 05:48:37;;;;;;;70.93;15.07;;;18.70;65.10;;;;;;5092231;28;20069;-53
2024/02/24 05:51:10;;;;;;;62.08;13.75;;;18.80;65.00;;;;;;5107438;28;20079;-52
2024/02/24 05:53:37;;;;;;;57.85;14.50;;;18.70;66.20;;;;;;5102472;28;20451;-54
2024/02/24 05:56:04;;;;;;;62.00;14.48;;;18.70;66.20;;;;;;5106615;28;20076;-53
2024/02/24 05:58:31;;;;;;;67.32;14.05;;;18.60;65.60;;;;;;5100805;28;20060;-54
2024/02/24 06:00:57;;;;;;;67.10;15.73;;;18.60;65.90;;;;;;5105897;28;20138;-53
2024/02/24 06:03:25;;;;;;;65.07;14.40;;;18.60;66.00;;;;;;5103199;27;20129;-53
2024/02/24 06:05:52;;;;;;;52.13;14.50;;;18.60;65.70;;;;;;5104583;28;20601;-49
2024/02/24 06:08:18;;;;;;;54.33;14.43;;;18.60;66.30;;;;;;5108937;28;20068;-51
2024/02/24 06:10:46;;;;;;;52.47;13.55;;;18.60;65.90;;;;;;5107108;28;20084;-50
2024/02/24 06:13:13;;;;;;;57.33;14.38;;;18.60;65.60;;;;;;5098291;28;20537;-48
2024/02/24 06:15:40;;;;;;;57.38;14.50;;;18.60;66.80;;;;;;5102880;28;20094;-50
2024/02/24 06:18:07;;;;;;;66.93;14.25;;;18.60;66.50;;;;;;5106363;28;20219;-49
2024/02/24 06:20:33;;;;;;;57.45;14.93;;;18.60;66.90;;;;;;5109397;28;20100;-50
2024/02/24 06:22:59;;;;;;;60.58;14.40;;;18.60;66.70;;;;;;5108520;28;20535;-49
2024/02/24 06:25:26;;;;;;;68.88;15.05;;;18.60;66.70;;;;;;5110226;28;20068;-48
2024/02/24 06:27:52;;;;;;;61.40;15.60;;;18.60;67.10;;;;;;5100046;28;20125;-51
2024/02/24 06:30:20;;;;;;;77.03;16.38;;;18.60;68.00;;;;;;5100965;28;20068;-51
2024/02/24 06:32:47;;;;;;;72.63;15.60;;;18.50;68.80;;;;;;5102090;28;20064;-51
2024/02/24 06:35:13;;;;;;;83.88;17.13;;;18.50;68.10;;;;;;5104788;28;20076;-54
2024/02/24 06:37:42;;;;;;;82.22;16.40;;;18.50;67.50;;;;;;5104612;28;20073;-49
2024/02/24 06:40:09;;;;;;;104.63;17.58;;;18.50;67.90;;;;;;5095093;28;20629;-50
2024/02/24 06:42:35;;;;;;;70.63;15.65;;;18.60;68.40;;;;;;5112816;28;20076;-49
2024/02/24 06:45:02;;;;;;;69.93;17.42;;;18.50;69.30;;;;;;5096881;28;20095;-50
2024/02/24 06:47:28;;;;;;;70.90;17.73;;;18.40;69.00;;;;;;5102377;28;20097;-49
2024/02/24 06:49:54;;;;;;;65.88;15.40;;;18.40;68.90;;;;;;5107877;27;20498;-51
2024/02/24 06:52:21;;;;;;;81.35;26.02;;;18.40;69.30;;;;;;5100268;28;20197;-52
2024/02/24 06:54:47;;;;;;;96.00;18.25;;;18.40;69.20;;;;;;5105115;28;20076;-54
2024/02/24 06:57:14;;;;;;;107.32;40.75;;;18.40;69.80;;;;;;5103724;28;20079;-52
2024/02/24 06:59:40;;;;;;;86.75;18.45;;;18.40;69.60;;;;;;5103847;28;20123;-53
2024/02/24 07:02:07;;;;;;;82.18;17.50;;;18.40;70.00;;;;;;5101080;28;20514;-49
2024/02/24 07:04:34;;;;;;;78.05;17.73;;;18.30;69.50;;;;;;5108476;28;20080;-52
2024/02/24 07:07:01;;;;;;;73.90;17.08;;;18.30;68.90;;;;;;5099830;28;20080;-50
2024/02/24 07:09:27;;;;;;;68.47;17.70;;;18.30;69.10;;;;;;5102167;28;20147;-52
2024/02/24 07:11:53;;;;;;;79.75;18.08;;;18.30;69.60;;;;;;5101386;28;20096;-53
2024/02/24 07:14:20;;;;;;;72.93;17.50;;;18.30;69.80;;;;;;5093982;28;20163;-61
2024/02/24 07:16:47;;;;;;;85.25;18.20;;;18.30;69.60;;;;;;5099218;28;20064;-50
2024/02/24 07:19:13;;;;;;;67.65;16.08;;;18.30;69.20;;;;;;5098618;28;20088;-48
2024/02/24 07:21:43;;;;;;;69.82;16.77;;;18.60;69.40;;;;;;5103847;28;20096;-53
2024/02/24 07:24:10;;;;;;;80.38;17.52;;;18.80;70.70;;;;;;5095736;28;20084;-51
2024/02/24 07:26:43;;;;;;;70.22;16.40;;;19.00;69.90;;;;;;5100836;28;20060;-50
2024/02/24 07:29:09;;;;;;;65.20;17.42;;;19.10;68.40;;;;;;5103215;28;20076;-50
2024/02/24 07:31:37;;;;;;;69.63;18.00;;;19.20;67.60;;;;;;5097304;28;20080;-49
2024/02/24 07:34:04;;;;;;;59.00;17.33;;;19.20;67.90;;;;;;5100490;28;20068;-50
2024/02/24 07:36:30;;;;;;;63.08;17.88;;;19.30;68.10;;;;;;5095198;28;20075;-52
2024/02/24 07:38:57;;;;;;;72.35;32.15;;;19.20;67.90;;;;;;5099631;28;20519;-52
2024/02/24 07:41:24;;;;;;;64.75;17.63;;;19.30;68.70;;;;;;5094507;28;20092;-51
2024/02/24 07:43:51;;;;;;;74.65;17.52;;;19.30;68.30;;;;;;5103331;27;20065;-49
2024/02/24 07:46:31;;;;;;;69.07;17.55;;;19.20;68.20;;;;;;5103084;28;20160;-51
2024/02/24 07:48:58;;;;;;;74.20;17.00;;;19.20;67.60;;;;;;5099500;28;20076;-54
2024/02/24 07:51:26;;;;;;;69.85;16.77;;;19.20;67.90;;;;;;5097850;28;20076;-54
2024/02/24 07:53:53;;;;;;;63.28;15.70;;;19.20;67.50;;;;;;5093890;28;20085;-53
2024/02/24 07:56:24;;;;;;;54.10;16.15;;;19.20;66.60;;;;;;5091941;28;20068;-52
2024/02/24 07:58:51;;;;;;;64.18;17.45;;;19.10;67.10;;;;;;5100069;28;20075;-56
2024/02/24 08:01:17;;;;;;;51.63;17.70;;;19.10;67.30;;;;;;5098304;28;20565;-53
2024/02/24 08:03:44;;;;;;;56.90;18.67;;;19.10;68.60;;;;;;5100412;28;20120;-51
2024/02/24 08:06:11;;;;;;;49.60;15.93;;;19.10;67.40;;;;;;5098994;28;20072;-51
2024/02/24 08:08:37;;;;;;;48.38;14.70;;;19.20;66.90;;;;;;5092229;28;20507;-49
2024/02/24 08:11:07;;;;;;;46.15;13.10;;;19.10;66.80;;;;;;5094343;28;20068;-50
2024/02/24 08:13:41;;;;;;;47.63;11.02;;;19.10;66.70;;;;;;5102506;28;20084;-51
2024/02/24 08:16:09;;;;;;;41.95;10.15;;;19.00;65.60;;;;;;5104056;28;20074;-50
2024/02/24 08:18:35;;;;;;;40.75;10.02;;;19.00;66.40;;;;;;5101083;28;20117;-53
2024/02/24 08:21:09;;;;;;;47.55;9.68;;;19.10;66.20;;;;;;5099143;28;20576;-50
2024/02/24 08:23:36;;;;;;;42.30;9.55;;;19.10;65.80;;;;;;5103119;28;20095;-50
2024/02/24 08:26:03;;;;;;;47.13;9.63;;;19.00;66.30;;;;;;5082653;28;20065;-50
2024/02/24 08:28:29;;;;;;;38.95;8.38;;;18.90;66.70;;;;;;5103683;28;20072;-49
2024/02/24 08:30:59;;;;;;;26.00;6.97;;;19.10;65.30;;;;;;5102466;28;20158;-53
2024/02/24 08:33:25;;;;;;;23.45;6.45;;;19.00;65.10;;;;;;5098488;28;20075;-55
2024/02/24 08:35:55;;;;;;;18.65;4.50;;;19.00;64.40;;;;;;5103211;28;20284;-50
2024/02/24 08:38:21;;;;;;;18.38;4.13;;;18.80;63.60;;;;;;5099078;28;20068;-50
2024/02/24 08:40:48;;;;;;;15.85;4.45;;;18.70;63.60;;;;;;5101496;28;20092;-52
2024/02/24 08:43:14;;;;;;;17.13;3.33;;;18.80;64.30;;;;;;5101388;28;20068;-52
2024/02/24 08:45:44;;;;;;;8.88;2.35;;;18.80;63.10;;;;;;5106866;28;20079;-49
2024/02/24 08:48:12;;;;;;;9.60;2.25;;;18.70;61.50;;;;;;5103941;28;20502;-52
2024/02/24 08:50:40;;;;;;;6.95;1.60;;;18.60;60.70;;;;;;5102331;28;20376;-50
2024/02/24 08:53:06;;;;;;;7.43;1.30;;;18.60;60.10;;;;;;5101123;28;20071;-53
2024/02/24 08:55:33;;;;;;;3.88;1.20;;;18.70;60.10;;;;;;5098235;28;20139;-52
2024/02/24 08:57:59;;;;;;;4.05;1.38;;;18.60;60.00;;;;;;5093500;28;20077;-59
2024/02/24 09:00:26;;;;;;;4.38;1.13;;;18.70;60.60;;;;;;5101740;28;20110;-51
2024/02/24 09:02:52;;;;;;;11.63;1.27;;;18.70;60.20;;;;;;5100984;28;20108;-50
2024/02/24 09:05:18;;;;;;;4.15;1.20;;;18.70;60.20;;;;;;5099741;28;20156;-49
2024/02/24 09:07:45;;;;;;;5.45;1.20;;;18.80;60.50;;;;;;5106205;28;20137;-53
2024/02/24 09:10:12;;;;;;;2.90;1.08;;;18.70;60.50;;;;;;5098988;28;20472;-51
2024/02/24 09:12:38;;;;;;;7.88;1.38;;;18.70;60.70;;;;;;5099883;28;20429;-51
2024/02/24 09:15:06;;;;;;;10.55;1.40;;;18.80;61.20;;;;;;5106523;28;20064;-49
2024/02/24 09:17:32;;;;;;;12.23;1.33;;;18.80;61.20;;;;;;5104403;28;20067;-49
2024/02/24 09:19:59;;;;;;;8.07;1.05;;;18.80;61.40;;;;;;5099190;28;20108;-50
2024/02/24 09:22:25;;;;;;;9.32;8.10;;;18.80;61.30;;;;;;5105904;28;20180;-50
2024/02/24 09:24:52;;;;;;;7.05;1.20;;;18.70;61.90;;;;;;5097038;28;20536;-51
2024/02/24 09:27:18;;;;;;;9.07;1.48;;;18.70;63.40;;;;;;5103884;28;20477;-50
2024/02/24 09:29:45;;;;;;;4.82;1.00;;;18.60;63.70;;;;;;5103515;28;20567;-50
2024/02/24 09:32:12;;;;;;;8.75;1.30;;;18.60;63.80;;;;;;5101984;28;20090;-51
2024/02/24 09:34:39;;;;;;;6.38;1.00;;;18.50;63.60;;;;;;5095068;28;20069;-52
2024/02/24 09:37:06;;;;;;;4.57;1.17;;;18.50;63.80;;;;;;5102581;28;20185;-49
2024/02/24 09:39:32;;;;;;;5.78;1.10;;;18.50;63.60;;;;;;5108697;28;20072;-58
2024/02/24 09:42:00;;;;;;;11.10;1.33;;;18.40;64.40;;;;;;5106441;28;20560;-51
2024/02/24 09:44:32;;;;;;;7.15;1.33;;;18.40;65.00;;;;;;5099505;28;20072;-49
2024/02/24 09:46:59;;;;;;;8.18;1.58;;;18.30;65.80;;;;;;5100453;28;20091;-49
2024/02/24 09:49:29;;;;;;;7.28;1.38;;;18.20;65.80;;;;;;5105300;28;20060;-51
2024/02/24 09:51:56;;;;;;;9.40;1.50;;;18.20;65.60;;;;;;5102131;28;20534;-52
2024/02/24 09:54:23;;;;;;;8.63;1.90;;;18.10;65.50;;;;;;5104951;28;20167;-52
2024/02/24 09:56:53;;;;;;;12.18;3.00;;;18.10;65.20;;;;;;5100906;28;20148;-51
2024/02/24 09:59:22;;;;;;;13.45;3.42;;;18.00;65.40;;;;;;5099573;28;20103;-52
2024/02/24 10:01:49;;;;;;;8.00;3.08;;;17.90;66.50;;;;;;5099518;28;20127;-58
2024/02/24 10:04:16;;;;;;;9.80;3.92;;;17.90;65.50;;;;;;5103634;28;20500;-52
2024/02/24 10:06:43;;;;;;;9.68;3.30;;;17.90;65.30;;;;;;5101133;28;20163;-53
2024/02/24 10:09:12;;;;;;;12.68;2.90;;;17.80;65.60;;;;;;5101537;28;20113;-49
2024/02/24 10:11:40;;;;;;;19.85;3.28;;;17.80;65.70;;;;;;5104919;28;20067;-50
2024/02/24 10:14:07;;;;;;;9.18;3.47;;;17.80;66.90;;;;;;5105284;28;20100;-53
2024/02/24 10:16:39;;;;;;;15.98;3.85;;;17.70;65.50;;;;;;5091406;28;20081;-61
2024/02/24 10:19:07;;;;;;;8.93;3.83;;;17.60;65.40;;;;;;5102861;28;20076;-51
2024/02/24 10:21:34;;;;;;;18.05;3.97;;;17.60;65.40;;;;;;5092581;28;20120;-50
2024/02/24 10:24:02;;;;;;;13.57;4.25;;;17.70;65.60;;;;;;5100961;28;20100;-51
2024/02/24 10:26:29;;;;;;;16.95;3.30;;;17.60;66.60;;;;;;5102517;28;20162;-50
2024/02/24 10:28:55;;;;;;;22.63;3.67;;;17.60;67.20;;;;;;5100005;28;20097;-57
2024/02/24 10:31:26;;;;;;;9.18;3.22;;;17.50;67.40;;;;;;5100367;28;20068;-49
2024/02/24 10:33:54;;;;;;;19.83;3.55;;;17.40;68.10;;;;;;5095979;28;20064;-56
2024/02/24 10:36:22;;;;;;;13.45;2.90;;;17.30;69.30;;;;;;5094090;28;20069;-50
2024/02/24 10:38:49;;;;;;;27.42;18.17;;;17.20;69.30;;;;;;5093492;28;21188;-50
2024/02/24 10:41:18;;;;;;;27.60;18.00;;;17.20;68.50;;;;;;5093516;28;20113;-53
2024/02/24 10:43:48;;;;;;;21.50;11.43;;;17.10;69.30;;;;;;5090612;28;20107;-53
2024/02/24 10:46:15;;;;;;;13.82;2.97;;;17.00;68.90;;;;;;5095617;28;20518;-51
2024/02/24 10:48:42;;;;;;;12.00;2.85;;;17.00;69.40;;;;;;5093950;28;20065;-53
2024/02/24 10:51:13;;;;;;;14.93;3.08;;;17.00;69.10;;;;;;5091067;28;20156;-54
2024/02/24 10:53:45;;;;;;;12.57;2.40;;;17.10;69.90;;;;;;5089387;28;20533;-54
2024/02/24 10:56:16;;;;;;;9.63;2.92;;;17.10;69.50;;;;;;5102771;28;20129;-54
2024/02/24 10:58:42;;;;;;;13.02;3.30;;;17.10;69.90;;;;;;5096365;28;20069;-51
2024/02/24 11:01:09;;;;;;;10.48;3.00;;;17.00;71.90;;;;;;5095703;28;20135;-49
2024/02/24 11:03:35;;;;;;;11.15;4.00;;;16.90;71.50;;;;;;5095237;28;20620;-49
2024/02/24 11:06:02;;;;;;;12.25;3.28;;;16.80;70.50;;;;;;5097663;28;20065;-50
2024/02/24 11:08:36;;;;;;;14.27;3.63;;;16.80;70.20;;;;;;5095199;28;20072;-49
2024/02/24 11:11:07;;;;;;;9.30;3.17;;;16.90;70.40;;;;;;5096387;28;20076;-53
2024/02/24 11:13:33;;;;;;;15.65;3.45;;;16.90;71.40;;;;;;5100615;28;20073;-55
2024/02/24 11:16:00;;;;;;;11.70;2.83;;;16.80;70.50;;;;;;5089635;28;20064;-50
2024/02/24 11:18:48;;;;;;;16.92;3.47;;;16.90;70.30;;;;;;5089370;28;20163;-53
2024/02/24 11:21:19;;;;;;;12.95;2.67;;;16.90;70.30;;;;;;5097909;28;20151;-53
2024/02/24 11:23:47;;;;;;;8.52;2.63;;;16.90;70.60;;;;;;5089648;28;20076;-51
2024/02/24 11:26:18;;;;;;;11.00;2.47;;;16.90;69.80;;;;;;5088703;28;20530;-51
2024/02/24 11:28:46;;;;;;;15.98;2.45;;;16.80;69.70;;;;;;5088578;28;20121;-53
2024/02/24 11:31:31;;;;;;;9.77;2.40;;;16.80;70.00;;;;;;5092106;28;20135;-52
2024/02/24 11:34:01;;;;;;;11.93;2.15;;;16.80;70.20;;;;;;5102546;28;20072;-51
2024/02/24 11:36:33;;;;;;;26.45;2.78;;;16.80;70.00;;;;;;5095226;28;20155;-60
2024/02/24 11:39:01;;;;;;;15.10;2.65;;;16.80;70.50;;;;;;5094983;28;20079;-54
2024/02/24 11:41:30;;;;;;;12.25;3.08;;;16.90;70.30;;;;;;5087929;28;20100;-53
2024/02/24 11:43:57;;;;;;;15.90;2.67;;;16.90;71.30;;;;;;5097400;28;20076;-51
2024/02/24 11:46:23;;;;;;;15.05;2.92;;;16.90;71.40;;;;;;5091222;28;21372;-51
2024/02/24 11:48:53;;;;;;;15.52;2.83;;;16.90;71.00;;;;;;5107609;28;20065;-52
2024/02/24 11:51:23;;;;;;;18.27;3.20;;;16.90;70.80;;;;;;5102288;28;20117;-53
2024/02/24 11:53:51;;;;;;;15.90;3.47;;;16.80;71.00;;;;;;5098152;28;20584;-53
2024/02/24 11:56:18;;;;;;;13.23;3.22;;;16.80;71.20;;;;;;5093430;28;20155;-48
2024/02/24 11:58:45;;;;;;;8.88;3.40;;;16.70;70.80;;;;;;5087749;28;20513;-50
2024/02/24 12:01:16;;;;;;;13.57;3.80;;;16.70;72.40;;;;;;5095860;28;20191;-49
2024/02/24 12:03:59;;;;;;;17.52;3.80;;;16.70;71.20;;;;;;5094528;28;20112;-52
2024/02/24 12:06:30;;;;;;;21.85;4.05;;;16.60;71.20;;;;;;5087937;28;20096;-50
2024/02/24 12:08:58;;;;;;;16.83;4.25;;;16.70;71.60;;;;;;5091498;28;20500;-54
2024/02/24 12:11:26;;;;;;;24.45;4.50;;;16.60;71.20;;;;;;5086441;28;20428;-50
2024/02/24 12:13:53;;;;;;;26.95;5.28;;;16.40;71.60;;;;;;5099159;28;20076;-50
2024/02/24 12:16:21;;;;;;;20.90;4.90;;;16.30;72.20;;;;;;5092022;28;20080;-50
2024/02/24 12:18:48;;;;;;;30.58;6.40;;;16.30;72.60;;;;;;5094847;28;20430;-49
2024/02/24 12:21:14;;;;;;;30.63;6.05;;;16.20;72.00;;;;;;5086996;28;20115;-52
2024/02/24 12:23:41;;;;;;;23.60;5.93;;;16.10;73.30;;;;;;5093521;28;20444;-50
2024/02/24 12:26:16;;;;;;;18.33;6.47;;;16.00;73.10;;;;;;5091683;28;20186;-49
2024/02/24 12:28:45;;;;;;;34.85;6.72;;;16.00;73.80;;;;;;5096016;28;20079;-50
2024/02/24 12:31:13;;;;;;;27.38;7.63;;;16.20;73.50;;;;;;5089159;28;20065;-53
2024/02/24 12:33:43;;;;;;;19.92;7.10;;;16.20;73.90;;;;;;5089636;28;20510;-51
2024/02/24 12:36:14;;;;;;;30.98;7.00;;;16.10;74.60;;;;;;5095245;28;20064;-50